Time;durP1;ratioP1;P1;durP2;ratioP2;P2;SDS_P1;SDS_P2;PMS_P1;PMS_P2;Temp;Humidity;BMP_temperature;BMP_pressure;BME280_temperature;BME280_humidity;BME280_pressure;Samples;Min_cycle;Max_cycle;Signal;HPM_P1;HPM_P2
2023/01/27 01:36:45;;;;;;;23.40;8.93;;;;;;;;;;6150924;23;20671;-89
2023/01/27 01:39:50;;;;;;;28.40;9.87;;;;;;;;;;6184482;23;20489;-89
2023/01/27 01:42:57;;;;;;;26.33;9.83;;;;;;;;;;6185175;23;20631;-91
2023/01/27 01:46:06;;;;;;;25.73;9.37;;;;;;;;;;6183206;23;20211;-91
2023/01/27 01:49:11;;;;;;;24.97;9.77;;;;;;;;;;6184366;23;20168;-88
2023/01/27 01:52:20;;;;;;;24.20;9.57;;;;;;;;;;6184229;23;20638;-91
2023/01/27 01:55:26;;;;;;;24.67;9.37;;;;;;;;;;6183011;23;20167;-91
2023/01/27 01:58:32;;;;;;;26.43;8.73;;;;;;;;;;6182675;23;20167;-91
2023/01/27 02:01:38;;;;;;;24.67;8.77;;;;;;;;;;6182948;23;20213;-89
2023/01/27 02:04:46;;;;;;;23.50;8.30;;;;;;;;;;6183509;23;20172;-91
2023/01/27 02:07:55;;;;;;;30.50;8.90;;;;;;;;;;6183247;23;20183;-90
2023/01/27 02:11:02;;;;;;;21.70;8.73;;;;;;;;;;6182560;23;20179;-89
2023/01/27 02:14:07;;;;;;;21.67;8.67;;;;;;;;;;6182118;23;20195;-90
2023/01/27 02:17:14;;;;;;;26.73;8.77;;;;;;;;;;6182158;23;20207;-89
2023/01/27 02:20:23;;;;;;;23.40;8.77;;;;;;;;;;6183540;23;20171;-90
2023/01/27 02:23:35;;;;;;;23.37;8.97;;;;;;;;;;6183345;23;20168;-91
2023/01/27 02:26:43;;;;;;;20.23;8.37;;;;;;;;;;6182674;23;20163;-87
2023/01/27 02:29:49;;;;;;;21.80;8.13;;;;;;;;;;6183328;23;20151;-91
2023/01/27 02:32:54;;;;;;;25.80;8.93;;;;;;;;;;6184195;23;20235;-91
2023/01/27 02:36:02;;;;;;;22.63;8.97;;;;;;;;;;6183651;23;20168;-90
2023/01/27 02:39:09;;;;;;;21.30;8.77;;;;;;;;;;6184903;23;20167;-92
2023/01/27 02:42:16;;;;;;;21.27;7.97;;;;;;;;;;6184060;23;20552;-91
2023/01/27 02:45:22;;;;;;;20.50;8.20;;;;;;;;;;6183370;23;20203;-90
2023/01/27 02:48:27;;;;;;;24.40;8.47;;;;;;;;;;6182145;23;20196;-89
2023/01/27 02:51:32;;;;;;;26.17;8.73;;;;;;;;;;6182515;23;20238;-90
2023/01/27 02:54:38;;;;;;;21.87;8.53;;;;;;;;;;6184031;23;20283;-91
2023/01/27 02:57:45;;;;;;;21.13;8.37;;;;;;;;;;6182202;23;20172;-89
2023/01/27 03:01:23;;;;;;;26.13;9.57;;;;;;;;;;6196448;23;20183;-89
2023/01/27 03:04:28;;;;;;;25.07;8.50;;;;;;;;;;6180926;23;20486;-89
2023/01/27 03:07:33;;;;;;;24.00;8.80;;;;;;;;;;6182393;23;20726;-90
2023/01/27 03:10:38;;;;;;;27.40;9.47;;;;;;;;;;6181242;23;20164;-90
2023/01/27 03:13:47;;;;;;;23.60;8.37;;;;;;;;;;6179774;23;20206;-91
2023/01/27 03:20:16;;;;;;;24.13;8.47;;;;;;;;;;6180528;23;20503;-89
2023/01/27 03:23:21;;;;;;;19.87;7.80;;;;;;;;;;6180720;23;20259;-89
2023/01/27 03:26:29;;;;;;;22.43;9.23;;;;;;;;;;6180436;23;20163;-91
2023/01/27 03:29:55;;;;;;;23.90;8.90;;;;;;;;;;6180792;23;20501;-89
2023/01/27 03:33:02;;;;;;;24.43;8.87;;;;;;;;;;6179456;23;20199;-92
2023/01/27 03:46:41;;;;;;;26.27;9.13;;;;;;;;;;6182986;23;20167;-88
2023/01/27 03:49:46;;;;;;;28.20;10.07;;;;;;;;;;6183514;23;20167;-93
2023/01/27 03:53:02;;;;;;;25.80;9.90;;;;;;;;;;6183685;23;20262;-90
2023/01/27 03:56:08;;;;;;;26.73;9.37;;;;;;;;;;6184168;23;20172;-91
2023/01/27 03:59:13;;;;;;;23.00;9.40;;;;;;;;;;6183928;23;20203;-91
2023/01/27 04:09:06;;;;;;;28.13;9.63;;;;;;;;;;6182152;23;20164;-89
2023/01/27 04:12:14;;;;;;;32.23;10.17;;;;;;;;;;6182262;23;20215;-92
2023/01/27 04:15:19;;;;;;;28.60;9.27;;;;;;;;;;6180257;23;20615;-89
2023/01/27 04:18:25;;;;;;;23.27;9.07;;;;;;;;;;6182342;23;20151;-91
2023/01/27 04:21:31;;;;;;;26.63;8.97;;;;;;;;;;6198634;23;20619;-90
2023/01/27 04:24:36;;;;;;;26.83;9.67;;;;;;;;;;6179868;23;20171;-87
2023/01/27 04:27:42;;;;;;;23.57;9.43;;;;;;;;;;6180739;23;20276;-90
2023/01/27 04:30:48;;;;;;;27.67;9.87;;;;;;;;;;6182771;23;20171;-89
2023/01/27 04:33:55;;;;;;;28.87;10.43;;;;;;;;;;6182940;23;20195;-90
2023/01/27 04:37:02;;;;;;;30.53;9.97;;;;;;;;;;6183044;23;20186;-89
2023/01/27 04:40:08;;;;;;;27.43;9.60;;;;;;;;;;6184833;23;20172;-90
2023/01/27 04:43:13;;;;;;;25.67;9.70;;;;;;;;;;6186384;23;20160;-90
2023/01/27 04:46:18;;;;;;;30.93;10.43;;;;;;;;;;6184839;23;20168;-90
2023/01/27 04:49:26;;;;;;;27.50;10.63;;;;;;;;;;6185257;23;20237;-90
2023/01/27 04:52:31;;;;;;;25.17;8.93;;;;;;;;;;6185402;23;20167;-90
2023/01/27 04:55:36;;;;;;;30.23;10.23;;;;;;;;;;6184477;23;20167;-90
2023/01/27 04:58:41;;;;;;;30.13;10.03;;;;;;;;;;6183861;23;20172;-91
2023/01/27 05:01:46;;;;;;;34.03;10.97;;;;;;;;;;6183782;23;20167;-91
2023/01/27 05:04:53;;;;;;;33.60;11.17;;;;;;;;;;6183778;23;20196;-91
2023/01/27 05:08:02;;;;;;;31.90;10.73;;;;;;;;;;6183551;23;20167;-93
2023/01/27 05:11:13;;;;;;;27.00;9.73;;;;;;;;;;6183711;23;20144;-90
2023/01/27 05:14:19;;;;;;;26.37;9.57;;;;;;;;;;6183185;23;20335;-91
2023/01/27 05:17:24;;;;;;;27.43;10.30;;;;;;;;;;6183426;23;20544;-89
2023/01/27 05:20:31;;;;;;;25.87;9.70;;;;;;;;;;6182224;23;20172;-90
2023/01/27 05:23:37;;;;;;;30.27;10.53;;;;;;;;;;6182446;23;20191;-90
2023/01/27 05:26:42;;;;;;;33.40;9.97;;;;;;;;;;6183373;23;20172;-91
2023/01/27 05:29:47;;;;;;;29.60;10.53;;;;;;;;;;6184221;23;20167;-90
2023/01/27 05:32:52;;;;;;;31.90;11.23;;;;;;;;;;6184767;23;20251;-89
2023/01/27 05:36:01;;;;;;;27.90;10.70;;;;;;;;;;6183098;23;20195;-89
2023/01/27 05:39:06;;;;;;;38.23;11.80;;;;;;;;;;6154079;23;20222;-91
2023/01/27 05:42:11;;;;;;;33.47;10.83;;;;;;;;;;6154167;23;20164;-89
2023/01/27 05:57:02;;;;;;;30.63;10.27;;;;;;;;;;6161703;23;20220;-90
2023/01/27 06:00:08;;;;;;;28.37;11.10;;;;;;;;;;6229548;23;20167;-90
2023/01/27 06:03:14;;;;;;;31.67;10.83;;;;;;;;;;6231535;23;20163;-90
2023/01/27 06:06:20;;;;;;;31.83;11.00;;;;;;;;;;6230757;23;20171;-90
2023/01/27 06:09:26;;;;;;;32.37;11.17;;;;;;;;;;6231108;23;20167;-90
2023/01/27 06:12:35;;;;;;;31.97;11.13;;;;;;;;;;6229260;23;20236;-90
2023/01/27 06:15:41;;;;;;;34.23;10.80;;;;;;;;;;6230112;23;20163;-89
2023/01/27 06:18:47;;;;;;;30.57;11.10;;;;;;;;;;6231942;23;20216;-88
2023/01/27 06:21:53;;;;;;;43.20;12.93;;;;;;;;;;6232397;23;20179;-91
2023/01/27 06:24:57;;;;;;;36.63;10.97;;;;;;;;;;6230883;23;20174;-89
2023/01/27 06:28:04;;;;;;;28.50;10.07;;;;;;;;;;6230444;23;20222;-88
2023/01/27 06:31:11;;;;;;;34.40;12.13;;;;;;;;;;6231782;23;20586;-91
2023/01/27 06:34:18;;;;;;;33.60;11.57;;;;;;;;;;6230870;23;20239;-90
2023/01/27 06:37:23;;;;;;;30.40;11.13;;;;;;;;;;6233219;23;20166;-89
2023/01/27 06:40:30;;;;;;;33.20;11.27;;;;;;;;;;6232631;23;20198;-91
2023/01/27 06:43:37;;;;;;;33.33;11.13;;;;;;;;;;6229780;23;20174;-89
2023/01/27 06:46:42;;;;;;;30.10;11.13;;;;;;;;;;6230130;23;20171;-90
2023/01/27 06:49:47;;;;;;;30.17;11.17;;;;;;;;;;6230261;23;20171;-90
2023/01/27 06:52:53;;;;;;;31.60;11.13;;;;;;;;;;6230567;23;20191;-91
2023/01/27 06:55:59;;;;;;;29.00;10.67;;;;;;;;;;6228551;23;20151;-90
2023/01/27 06:59:05;;;;;;;28.03;11.00;;;;;;;;;;6229418;23;20171;-89
2023/01/27 07:02:12;;;;;;;32.63;11.47;;;;;;;;;;6230936;23;20211;-90
2023/01/27 07:05:17;;;;;;;32.70;11.23;;;;;;;;;;6234425;23;20167;-89
2023/01/27 07:08:23;;;;;;;31.90;11.00;;;;;;;;;;6231402;23;20163;-89
2023/01/27 07:11:32;;;;;;;34.67;11.83;;;;;;;;;;6231276;23;20224;-88
2023/01/27 07:14:48;;;;;;;33.23;11.83;;;;;;;;;;6232616;23;20258;-88
2023/01/27 07:17:54;;;;;;;39.90;11.87;;;;;;;;;;6232246;23;20147;-90
2023/01/27 07:21:04;;;;;;;32.20;11.67;;;;;;;;;;6231931;23;20175;-89
2023/01/27 07:24:09;;;;;;;34.77;11.47;;;;;;;;;;6234314;23;20159;-91
2023/01/27 07:27:16;;;;;;;34.40;12.20;;;;;;;;;;6234090;23;20191;-91
2023/01/27 07:30:24;;;;;;;32.90;11.83;;;;;;;;;;6233432;23;20194;-91
2023/01/27 07:33:30;;;;;;;34.87;11.40;;;;;;;;;;6232839;23;20167;-91
2023/01/27 07:36:35;;;;;;;33.67;12.50;;;;;;;;;;6235936;23;20155;-88
2023/01/27 07:39:41;;;;;;;31.07;11.27;;;;;;;;;;6232247;23;20247;-89
2023/01/27 07:42:49;;;;;;;28.97;11.07;;;;;;;;;;6234087;23;20251;-92
2023/01/27 07:45:57;;;;;;;32.07;10.93;;;;;;;;;;6234677;23;20235;-89
2023/01/27 07:49:02;;;;;;;34.67;11.13;;;;;;;;;;6233683;23;20178;-91
2023/01/27 07:52:07;;;;;;;33.70;11.27;;;;;;;;;;6233370;23;20214;-91
2023/01/27 07:55:12;;;;;;;87.90;31.73;;;;;;;;;;6230977;23;20195;-89
2023/01/27 07:58:18;;;;;;;78.10;25.17;;;;;;;;;;6232836;23;20260;-91
2023/01/27 08:01:25;;;;;;;49.03;16.57;;;;;;;;;;6232035;23;20171;-91
2023/01/27 08:04:34;;;;;;;59.60;20.83;;;;;;;;;;6217920;23;20491;-89
2023/01/27 08:07:39;;;;;;;85.97;28.53;;;;;;;;;;6235794;23;20168;-90
2023/01/27 08:10:50;;;;;;;175.53;48.60;;;;;;;;;;6216895;23;20163;-89
2023/01/27 08:13:56;;;;;;;248.67;60.00;;;;;;;;;;6236921;23;20355;-88
2023/01/27 08:17:04;;;;;;;70.10;24.70;;;;;;;;;;6235541;23;20174;-90
2023/01/27 08:20:10;;;;;;;39.80;13.00;;;;;;;;;;6234715;23;20210;-91
2023/01/27 08:23:17;;;;;;;36.73;12.63;;;;;;;;;;6234385;23;20183;-91
2023/01/27 08:26:23;;;;;;;65.43;20.70;;;;;;;;;;6233583;23;20203;-88
2023/01/27 08:29:32;;;;;;;79.40;22.27;;;;;;;;;;6235325;23;20159;-89
2023/01/27 08:32:41;;;;;;;55.47;17.87;;;;;;;;;;6234286;23;20171;-90
2023/01/27 08:35:46;;;;;;;54.23;16.30;;;;;;;;;;6237085;23;20198;-91
2023/01/27 08:38:52;;;;;;;86.47;26.80;;;;;;;;;;6236105;23;20267;-90
2023/01/27 08:41:58;;;;;;;43.80;16.03;;;;;;;;;;6233674;23;20171;-88
2023/01/27 08:45:04;;;;;;;36.23;12.43;;;;;;;;;;6235814;23;20214;-90
2023/01/27 08:48:12;;;;;;;34.23;11.73;;;;;;;;;;6236496;23;20497;-91
2023/01/27 08:51:18;;;;;;;54.83;18.73;;;;;;;;;;6235041;23;20250;-88
2023/01/27 08:54:23;;;;;;;36.10;13.97;;;;;;;;;;6234856;23;20194;-89
2023/01/27 08:57:31;;;;;;;34.00;11.77;;;;;;;;;;6235817;23;20227;-90
2023/01/27 09:00:37;;;;;;;36.40;12.20;;;;;;;;;;6234825;23;20248;-92
2023/01/27 09:03:44;;;;;;;38.90;13.60;;;;;;;;;;6234977;23;20246;-90
2023/01/27 09:06:52;;;;;;;31.10;11.83;;;;;;;;;;6235647;23;20195;-88
2023/01/27 09:09:58;;;;;;;50.17;18.10;;;;;;;;;;6237878;23;20167;-88
2023/01/27 09:13:04;;;;;;;38.90;13.83;;;;;;;;;;6236090;23;20167;-91
2023/01/27 09:16:10;;;;;;;67.60;21.90;;;;;;;;;;6235715;23;20199;-91
2023/01/27 09:19:18;;;;;;;32.63;11.80;;;;;;;;;;6236187;23;20166;-92
2023/01/27 09:22:24;;;;;;;40.43;14.50;;;;;;;;;;6216851;23;20171;-91
2023/01/27 09:25:29;;;;;;;61.20;22.63;;;;;;;;;;6235066;23;20175;-90
2023/01/27 09:28:34;;;;;;;45.50;15.40;;;;;;;;;;6234425;23;20155;-89
2023/01/27 09:31:40;;;;;;;34.70;13.20;;;;;;;;;;6234288;23;20195;-87
2023/01/27 09:34:54;;;;;;;29.57;10.70;;;;;;;;;;6235934;23;20255;-89
2023/01/27 09:38:00;;;;;;;33.20;12.40;;;;;;;;;;6235786;23;20182;-92
2023/01/27 09:41:12;;;;;;;31.07;11.37;;;;;;;;;;6234581;23;20167;-90
2023/01/27 09:44:36;;;;;;;32.17;11.47;;;;;;;;;;6234633;23;20215;-89
2023/01/27 09:47:57;;;;;;;32.57;11.50;;;;;;;;;;6233911;23;20176;-90
2023/01/27 09:51:06;;;;;;;29.67;11.37;;;;;;;;;;6194194;22;20198;-89
2023/01/27 09:54:22;;;;;;;32.23;12.17;;;;;;;;;;6231049;23;20167;-88
2023/01/27 09:57:35;;;;;;;27.30;11.40;;;;;;;;;;6230685;23;20191;-90
2023/01/27 10:00:48;;;;;;;29.17;10.83;;;;;;;;;;6232183;23;20151;-92
2023/01/27 10:07:34;;;;;;;34.83;11.17;;;;;;;;;;6233756;23;20220;-87
2023/01/27 10:10:51;;;;;;;27.87;10.53;;;;;;;;;;6229983;23;20614;-90
2023/01/27 10:14:01;;;;;;;25.67;10.57;;;;;;;;;;6232418;23;20218;-89
2023/01/27 10:17:12;;;;;;;24.47;9.80;;;;;;;;;;6234107;23;20666;-90
2023/01/27 10:20:22;;;;;;;27.13;10.83;;;;;;;;;;6181097;23;20250;-88
2023/01/27 10:23:35;;;;;;;26.93;10.70;;;;;;;;;;6214850;23;20158;-89
2023/01/27 10:26:42;;;;;;;30.97;11.33;;;;;;;;;;6197917;23;20147;-90
2023/01/27 10:29:52;;;;;;;28.17;10.47;;;;;;;;;;6216009;23;20617;-91
2023/01/27 10:33:01;;;;;;;28.77;10.37;;;;;;;;;;6214063;23;20163;-91
2023/01/27 10:36:09;;;;;;;30.23;10.67;;;;;;;;;;6214664;23;20203;-91
2023/01/27 10:39:19;;;;;;;26.07;10.60;;;;;;;;;;6214336;23;20244;-89
2023/01/27 10:42:28;;;;;;;27.00;10.60;;;;;;;;;;6217246;23;20581;-90
2023/01/27 10:45:38;;;;;;;27.80;10.60;;;;;;;;;;6236841;23;20147;-91
2023/01/27 10:48:46;;;;;;;27.77;10.57;;;;;;;;;;6215770;23;20171;-90
2023/01/27 10:51:53;;;;;;;29.30;10.30;;;;;;;;;;6217180;23;20208;-92
2023/01/27 10:55:01;;;;;;;27.30;9.50;;;;;;;;;;6215418;23;20193;-88
2023/01/27 10:58:11;;;;;;;25.43;9.87;;;;;;;;;;6217025;23;20164;-90
2023/01/27 11:01:21;;;;;;;27.20;10.93;;;;;;;;;;6200457;23;20214;-91
2023/01/27 11:04:38;;;;;;;27.37;9.80;;;;;;;;;;6218392;23;20178;-88
2023/01/27 11:07:47;;;;;;;26.73;10.10;;;;;;;;;;6217583;23;20191;-91
2023/01/27 11:14:33;;;;;;;27.13;10.27;;;;;;;;;;6186417;23;20298;-88
2023/01/27 11:17:43;;;;;;;26.97;9.80;;;;;;;;;;6215141;23;20202;-90
2023/01/27 11:20:51;;;;;;;24.73;10.03;;;;;;;;;;6214790;23;20237;-89
2023/01/27 11:23:59;;;;;;;25.73;10.37;;;;;;;;;;6213720;23;20154;-90
2023/01/27 11:27:11;;;;;;;27.20;9.80;;;;;;;;;;6213026;23;20178;-91
2023/01/27 11:30:20;;;;;;;29.40;9.90;;;;;;;;;;6212648;23;20206;-89
2023/01/27 11:33:31;;;;;;;22.87;8.97;;;;;;;;;;6215797;23;20179;-92
2023/01/27 11:36:39;;;;;;;27.77;9.57;;;;;;;;;;6213580;23;20194;-89
2023/01/27 11:43:08;;;;;;;28.40;10.40;;;;;;;;;;6219514;23;20215;-90
2023/01/27 11:46:19;;;;;;;32.33;10.20;;;;;;;;;;6216985;23;20174;-93
2023/01/27 11:49:27;;;;;;;29.80;10.43;;;;;;;;;;6214744;23;20656;-92
2023/01/27 11:52:32;;;;;;;26.53;10.37;;;;;;;;;;6216231;23;20175;-90
2023/01/27 11:55:39;;;;;;;24.43;9.70;;;;;;;;;;6212213;23;20194;-90
2023/01/27 12:02:36;;;;;;;26.33;9.57;;;;;;;;;;6214001;23;20266;-89
2023/01/27 12:05:46;;;;;;;26.60;9.83;;;;;;;;;;6215482;23;20184;-92
2023/01/27 12:08:52;;;;;;;28.10;9.43;;;;;;;;;;6215467;23;20167;-88
2023/01/27 12:12:12;;;;;;;26.60;10.90;;;;;;;;;;6215380;23;20230;-89
2023/01/27 12:15:18;;;;;;;28.90;10.13;;;;;;;;;;6214708;23;20242;-91
2023/01/27 12:18:23;;;;;;;21.70;9.10;;;;;;;;;;6214736;23;20239;-90
2023/01/27 12:21:51;;;;;;;25.17;9.83;;;;;;;;;;6213840;23;20682;-90
2023/01/27 12:24:59;;;;;;;25.90;9.20;;;;;;;;;;6215752;23;20183;-90
2023/01/27 12:28:05;;;;;;;21.80;8.23;;;;;;;;;;6216528;23;20159;-93
2023/01/27 12:31:18;;;;;;;23.57;9.40;;;;;;;;;;6213704;23;20183;-89
2023/01/27 12:34:28;;;;;;;25.37;8.93;;;;;;;;;;6215406;23;20154;-90
2023/01/27 12:41:00;;;;;;;19.30;7.97;;;;;;;;;;6215963;23;20152;-91
2023/01/27 12:44:09;;;;;;;20.97;8.63;;;;;;;;;;6217485;23;20187;-90
2023/01/27 12:47:25;;;;;;;22.23;9.30;;;;;;;;;;6216878;23;20150;-90
2023/01/27 12:50:33;;;;;;;22.67;8.57;;;;;;;;;;6216564;23;20167;-91
2023/01/27 12:53:42;;;;;;;24.20;8.93;;;;;;;;;;6215603;23;20167;-90
2023/01/27 12:56:48;;;;;;;25.20;8.83;;;;;;;;;;6214106;23;20238;-91
2023/01/27 12:59:57;;;;;;;26.20;9.67;;;;;;;;;;6215442;23;20206;-91
2023/01/27 13:03:06;;;;;;;29.17;10.30;;;;;;;;;;6216147;23;20167;-91
2023/01/27 13:06:15;;;;;;;27.00;10.03;;;;;;;;;;6214141;23;20230;-90
2023/01/27 13:09:36;;;;;;;37.13;11.60;;;;;;;;;;6215101;23;20196;-90
2023/01/27 13:17:03;;;;;;;24.80;9.73;;;;;;;;;;6236075;23;20198;-90
2023/01/27 13:38:23;;;;;;;32.57;10.57;;;;;;;;;;6116415;23;20170;-92
2023/01/27 13:41:32;;;;;;;27.57;9.70;;;;;;;;;;6133030;23;20170;-91
2023/01/27 13:44:40;;;;;;;23.73;9.20;;;;;;;;;;6116193;23;20178;-90
2023/01/27 13:47:50;;;;;;;24.13;9.77;;;;;;;;;;6117638;23;20185;-91
2023/01/27 13:51:00;;;;;;;23.83;9.23;;;;;;;;;;6118712;23;20174;-89
2023/01/27 13:54:07;;;;;;;34.00;10.00;;;;;;;;;;6135833;23;20173;-91
2023/01/27 13:57:22;;;;;;;24.83;9.17;;;;;;;;;;6134467;23;20193;-88
2023/01/27 14:00:33;;;;;;;23.33;8.87;;;;;;;;;;6117956;23;20154;-91
2023/01/27 14:03:53;;;;;;;22.77;9.30;;;;;;;;;;6117862;23;20243;-90
2023/01/27 14:07:04;;;;;;;24.90;8.20;;;;;;;;;;6115410;23;20182;-89
2023/01/27 14:10:23;;;;;;;19.17;7.73;;;;;;;;;;6118176;23;20175;-90
2023/01/27 14:13:35;;;;;;;20.73;8.10;;;;;;;;;;6116934;23;20174;-91
2023/01/27 14:16:46;;;;;;;31.60;9.30;;;;;;;;;;6116172;23;20231;-91
2023/01/27 14:19:55;;;;;;;25.23;8.37;;;;;;;;;;6117277;23;20670;-89
2023/01/27 14:23:13;;;;;;;24.83;10.00;;;;;;;;;;6117399;23;20170;-89
2023/01/27 14:26:32;;;;;;;22.77;8.03;;;;;;;;;;6134763;23;20158;-89
2023/01/27 14:29:42;;;;;;;19.53;8.40;;;;;;;;;;6115235;23;20183;-91
2023/01/27 14:32:53;;;;;;;25.83;8.80;;;;;;;;;;6116822;23;20190;-89
2023/01/27 14:36:04;;;;;;;25.60;9.60;;;;;;;;;;6116849;23;20285;-91
2023/01/27 14:39:17;;;;;;;31.37;8.87;;;;;;;;;;6117269;23;20169;-89
2023/01/27 14:42:35;;;;;;;24.33;9.60;;;;;;;;;;6117014;23;20174;-90
2023/01/27 14:45:41;;;;;;;25.87;9.50;;;;;;;;;;6118485;23;20158;-89
2023/01/27 14:48:53;;;;;;;24.57;9.40;;;;;;;;;;6132834;23;20468;-90
2023/01/27 14:52:07;;;;;;;25.83;9.77;;;;;;;;;;6113549;23;20158;-88
2023/01/27 14:55:20;;;;;;;24.03;8.93;;;;;;;;;;6134932;23;20169;-91
2023/01/27 14:58:41;;;;;;;25.00;8.73;;;;;;;;;;6115439;23;20198;-89
2023/01/27 15:01:53;;;;;;;23.70;9.37;;;;;;;;;;6133734;23;20222;-91
2023/01/27 15:05:04;;;;;;;31.03;10.10;;;;;;;;;;6116537;23;20173;-89
2023/01/27 15:08:14;;;;;;;19.57;8.07;;;;;;;;;;6133957;23;20218;-88
2023/01/27 15:11:40;;;;;;;25.97;9.33;;;;;;;;;;6113232;23;20190;-89
2023/01/27 15:14:56;;;;;;;23.63;9.10;;;;;;;;;;6112573;23;20653;-89
2023/01/27 15:18:11;;;;;;;20.47;8.90;;;;;;;;;;6112911;23;20177;-89
2023/01/27 15:21:29;;;;;;;24.80;9.50;;;;;;;;;;6113096;23;20174;-91
2023/01/27 15:24:44;;;;;;;26.03;9.73;;;;;;;;;;6113966;23;20219;-90
2023/01/27 15:27:59;;;;;;;24.30;9.63;;;;;;;;;;6115866;23;20173;-90
2023/01/27 15:31:08;;;;;;;25.07;10.30;;;;;;;;;;6134771;23;20161;-90
2023/01/27 15:34:25;;;;;;;23.80;10.60;;;;;;;;;;6135065;23;20186;-90
2023/01/27 15:37:32;;;;;;;25.43;9.90;;;;;;;;;;6134166;23;20189;-89
2023/01/27 15:40:57;;;;;;;24.60;9.13;;;;;;;;;;6117750;23;20170;-89
2023/01/27 15:44:15;;;;;;;22.07;9.17;;;;;;;;;;6114950;23;20170;-90
2023/01/27 15:47:22;;;;;;;26.60;10.47;;;;;;;;;;6117021;23;20169;-89
2023/01/27 15:50:33;;;;;;;31.73;10.03;;;;;;;;;;6132478;23;20170;-88
2023/01/27 15:53:41;;;;;;;21.23;8.50;;;;;;;;;;6135219;23;20169;-90
2023/01/27 15:56:51;;;;;;;20.47;7.70;;;;;;;;;;6114499;23;20218;-89
2023/01/27 16:00:02;;;;;;;16.20;7.80;;;;;;;;;;6115405;23;20178;-91
2023/01/27 16:03:21;;;;;;;23.20;6.67;;;;;;;;;;6118172;23;20171;-90
2023/01/27 16:06:30;;;;;;;21.67;7.23;;;;;;;;;;6130971;23;20170;-91
2023/01/27 16:09:39;;;;;;;23.73;7.80;;;;;;;;;;6115089;23;20154;-90
2023/01/27 16:12:47;;;;;;;21.20;8.20;;;;;;;;;;6115673;23;20218;-88
2023/01/27 16:16:07;;;;;;;24.93;6.97;;;;;;;;;;6116314;23;20597;-90
2023/01/27 16:19:19;;;;;;;22.07;7.90;;;;;;;;;;6134049;23;20175;-89
2023/01/27 16:22:33;;;;;;;22.77;7.30;;;;;;;;;;6118286;23;20182;-88
2023/01/27 16:25:40;;;;;;;17.67;7.60;;;;;;;;;;6117499;23;20226;-89
2023/01/27 16:32:16;;;;;;;20.03;8.00;;;;;;;;;;6119871;23;20162;-91
2023/01/27 16:38:27;;;;;;;23.17;9.10;;;;;;;;;;6199598;22;20212;-90
2023/01/27 17:05:04;;;;;;;27.23;9.20;;;;;;;;;;6245571;22;20226;-93
2023/01/27 17:08:19;;;;;;;23.23;8.23;;;;;;;;;;6253252;22;20162;-92
2023/01/27 17:11:26;;;;;;;18.10;7.40;;;;;;;;;;6250127;23;20162;-89
2023/01/27 17:14:35;;;;;;;22.80;8.03;;;;;;;;;;6248611;22;20175;-89
2023/01/27 17:17:41;;;;;;;29.43;8.10;;;;;;;;;;6266623;22;20230;-90
2023/01/27 17:20:49;;;;;;;29.33;10.00;;;;;;;;;;6247884;22;20209;-88
2023/01/27 17:23:58;;;;;;;16.73;6.13;;;;;;;;;;6245658;22;20231;-90
2023/01/27 17:27:06;;;;;;;21.50;6.50;;;;;;;;;;6243909;22;20167;-88
2023/01/27 17:30:14;;;;;;;15.37;6.00;;;;;;;;;;6246363;23;20166;-87
2023/01/27 17:33:21;;;;;;;21.40;6.03;;;;;;;;;;6248628;23;20155;-88
2023/01/27 17:36:29;;;;;;;23.07;6.90;;;;;;;;;;6246087;22;20174;-89
2023/01/27 17:39:35;;;;;;;17.00;6.53;;;;;;;;;;6248262;22;20602;-91
2023/01/27 17:42:42;;;;;;;12.70;5.60;;;;;;;;;;6247015;23;20676;-87
2023/01/27 17:45:49;;;;;;;14.97;5.93;;;;;;;;;;6245059;23;20167;-90
2023/01/27 17:48:56;;;;;;;16.60;6.90;;;;;;;;;;6246444;23;20189;-89
2023/01/27 17:52:08;;;;;;;21.63;6.90;;;;;;;;;;6245847;23;20178;-90
2023/01/27 17:55:16;;;;;;;20.47;6.97;;;;;;;;;;6244571;22;20206;-90
2023/01/27 17:58:23;;;;;;;12.77;5.90;;;;;;;;;;6244604;23;20194;-89
2023/01/27 18:01:29;;;;;;;18.93;6.70;;;;;;;;;;6243747;23;20221;-88
2023/01/27 18:04:38;;;;;;;23.63;7.67;;;;;;;;;;6243004;23;20282;-90
2023/01/27 18:07:44;;;;;;;17.17;7.07;;;;;;;;;;6246894;22;20186;-89
2023/01/27 18:10:50;;;;;;;22.10;7.77;;;;;;;;;;6243617;22;20167;-88
2023/01/27 22:31:47;;;;;;;25.83;11.00;;;;;;;;;;6202076;22;2369111;-92
2023/01/27 22:34:54;;;;;;;26.17;10.20;;;;;;;;;;6328504;22;20185;-91
2023/01/27 22:38:01;;;;;;;24.50;8.93;;;;;;;;;;6309984;22;20550;-91
2023/01/27 22:41:09;;;;;;;24.70;10.20;;;;;;;;;;6312388;22;20164;-90
2023/01/27 22:44:16;;;;;;;24.87;10.23;;;;;;;;;;6329946;22;20169;-94
2023/01/27 22:47:24;;;;;;;23.20;9.87;;;;;;;;;;6310589;22;20165;-90
2023/01/27 22:50:30;;;;;;;26.63;10.17;;;;;;;;;;6311403;22;20185;-90
2023/01/27 22:53:38;;;;;;;21.30;9.17;;;;;;;;;;6309472;22;20200;-91
2023/01/27 22:56:46;;;;;;;30.80;12.57;;;;;;;;;;6310484;22;20197;-91
2023/01/27 22:59:56;;;;;;;20.13;9.37;;;;;;;;;;6330986;22;20177;-92
2023/01/27 23:03:06;;;;;;;21.30;9.03;;;;;;;;;;6295604;22;20173;-93
2023/01/27 23:06:13;;;;;;;22.77;9.27;;;;;;;;;;6313805;22;20169;-91
2023/01/27 23:09:18;;;;;;;21.90;8.87;;;;;;;;;;6311758;22;20209;-92
2023/01/27 23:12:25;;;;;;;21.70;8.50;;;;;;;;;;6308957;22;20153;-94
2023/01/27 23:15:31;;;;;;;20.77;8.53;;;;;;;;;;6311439;22;20188;-93
2023/01/27 23:18:39;;;;;;;19.13;8.23;;;;;;;;;;6310286;22;20177;-90
2023/01/27 23:21:45;;;;;;;19.73;8.23;;;;;;;;;;6309818;22;20164;-91
2023/01/27 23:24:58;;;;;;;21.60;8.33;;;;;;;;;;6312141;22;20177;-94
2023/01/27 23:28:07;;;;;;;18.93;8.27;;;;;;;;;;6310434;22;20201;-92
2023/01/27 23:31:14;;;;;;;20.77;8.20;;;;;;;;;;6312528;22;20232;-92
2023/01/27 23:34:21;;;;;;;18.80;8.17;;;;;;;;;;6310547;22;20208;-92
2023/01/27 23:37:28;;;;;;;20.07;8.53;;;;;;;;;;6311233;22;20153;-93
2023/01/27 23:40:37;;;;;;;17.47;8.10;;;;;;;;;;6311313;22;20206;-92
2023/01/27 23:43:43;;;;;;;23.13;9.90;;;;;;;;;;6311494;22;20185;-91
2023/01/27 23:46:49;;;;;;;19.53;8.53;;;;;;;;;;6312356;22;20168;-94
2023/01/27 23:49:56;;;;;;;22.23;9.17;;;;;;;;;;6311925;22;20220;-92
2023/01/27 23:53:02;;;;;;;19.60;9.23;;;;;;;;;;6311249;22;20192;-93
2023/01/27 23:56:11;;;;;;;24.07;8.30;;;;;;;;;;6310803;22;20169;-93
2023/01/27 23:59:17;;;;;;;20.73;8.83;;;;;;;;;;6309401;22;20173;-93
